createdAt,value
2018-06-04T19:51:27.113Z,7.30
2018-06-04T19:56:11.247Z,7.77
2018-06-04T20:00:12.682Z,8.57
2018-06-04T20:04:18.054Z,6.00
2018-06-04T20:06:47.459Z,8.90
2018-06-04T20:09:17.120Z,8.90
2018-06-04T20:11:44.933Z,6.57
2018-06-04T20:14:12.838Z,5.13
2018-06-04T20:16:40.811Z,5.83
2018-06-04T20:19:08.597Z,7.80
2018-06-04T20:21:36.412Z,6.07
2018-06-04T20:24:05.067Z,5.63
2018-06-04T20:26:33.446Z,5.37
2018-06-04T20:29:00.981Z,5.07
2018-06-04T20:31:29.188Z,7.30
2018-06-04T20:33:57.089Z,4.33
2018-06-04T20:36:24.883Z,5.17
2018-06-04T20:38:52.497Z,4.67
2018-06-04T20:41:20.344Z,5.17
2018-06-04T20:43:48.108Z,3.20
2018-06-04T20:46:16.188Z,3.93
2018-06-04T20:48:43.889Z,4.07
2018-06-04T20:51:11.458Z,4.20
2018-06-04T20:53:39.260Z,4.60
2018-06-04T20:56:07.040Z,9.03
2018-06-04T20:58:35.475Z,6.13
2018-06-04T21:01:03.252Z,5.20
2018-06-04T21:03:30.728Z,3.77
2018-06-04T21:05:58.205Z,4.20
2018-06-04T21:08:25.648Z,3.50
2018-06-04T21:10:53.322Z,3.73
2018-06-04T21:13:20.982Z,2.63
2018-06-04T21:15:48.772Z,3.67
2018-06-04T21:18:16.435Z,5.77
2018-06-04T21:20:44.228Z,3.80
2018-06-04T21:23:13.018Z,2.87
2018-06-04T21:25:40.519Z,3.17
2018-06-04T21:28:07.917Z,2.13
2018-06-04T21:30:36.671Z,12.37
2018-06-04T21:33:04.347Z,6.13
2018-06-04T21:35:32.165Z,9.10
2018-06-04T21:37:59.845Z,6.67
2018-06-04T21:40:28.948Z,9.97
2018-06-04T21:42:56.959Z,6.33
2018-06-04T21:45:24.336Z,4.93
2018-06-04T21:47:51.736Z,5.33
2018-06-04T21:50:19.119Z,5.83
2018-06-04T21:52:46.878Z,4.83
2018-06-04T21:55:14.476Z,3.10
2018-06-04T21:57:42.060Z,3.63
2018-06-04T22:00:09.734Z,5.60
2018-06-04T22:02:37.604Z,5.10
2018-06-04T22:05:05.276Z,5.17
2018-06-04T22:07:32.681Z,3.77
2018-06-04T22:10:00.301Z,4.13
2018-06-04T22:12:27.882Z,2.90
2018-06-04T22:14:55.448Z,3.90
2018-06-04T22:17:22.907Z,4.40
2018-06-04T22:19:50.347Z,3.20
2018-06-04T22:22:17.786Z,3.40
2018-06-04T22:24:45.784Z,5.30
2018-06-04T22:27:13.530Z,2.67
2018-06-04T22:29:41.125Z,2.77
2018-06-04T22:32:08.557Z,3.13
2018-06-04T22:34:36.814Z,1.70
2018-06-04T22:37:04.421Z,2.70
2018-06-04T22:39:31.884Z,2.23
2018-06-04T22:41:59.658Z,2.63
2018-06-04T22:44:27.292Z,1.17
2018-06-04T22:46:55.095Z,2.23
2018-06-04T22:49:22.850Z,1.10
2018-06-04T22:51:50.511Z,0.97
2018-06-04T22:54:18.009Z,2.77
2018-06-04T22:56:45.397Z,1.83
2018-06-04T22:59:12.940Z,1.37
2018-06-04T23:01:40.352Z,1.20
2018-06-04T23:04:07.944Z,0.63
2018-06-04T23:06:35.466Z,1.23
2018-06-04T23:09:04.070Z,1.03
2018-06-04T23:11:31.767Z,1.00
2018-06-04T23:13:59.797Z,0.70
2018-06-04T23:16:27.934Z,1.67
2018-06-04T23:18:55.708Z,1.73
2018-06-04T23:21:24.399Z,1.77
2018-06-04T23:23:53.734Z,0.97
2018-06-04T23:26:21.460Z,1.17
2018-06-04T23:28:49.461Z,1.07
2018-06-04T23:31:18.945Z,2.10
2018-06-04T23:33:46.409Z,1.77
2018-06-04T23:36:13.768Z,1.00
2018-06-04T23:38:41.940Z,0.40
2018-06-04T23:41:09.543Z,2.57
2018-06-04T23:43:37.136Z,2.87
2018-06-04T23:46:05.095Z,1.63
2018-06-04T23:48:32.159Z,1.43
